Time;durP1;ratioP1;P1;durP2;ratioP2;P2;SDS_P1;SDS_P2;PMS_P1;PMS_P2;Temp;Humidity;BMP_temperature;BMP_pressure;BME280_temperature;BME280_humidity;BME280_pressure;Samples;Min_cycle;Max_cycle;Signal;HPM_P1;HPM_P2
2024/02/16 00:00:24;;;;;;;5.72;1.88;;;;;;;;;;5070990;28;20475;-81
2024/02/16 00:02:50;;;;;;;6.47;2.95;;;;;;;;;;5070384;28;20031;-81
2024/02/16 00:05:16;;;;;;;5.22;1.90;;;;;;;;;;5071034;28;20024;-83
2024/02/16 00:07:42;;;;;;;7.60;2.25;;;;;;;;;;5070684;28;20024;-81
2024/02/16 00:10:09;;;;;;;7.53;2.53;;;;;;;;;;5070885;28;20070;-82
2024/02/16 00:12:35;;;;;;;6.60;2.58;;;;;;;;;;5070887;28;20025;-82
2024/02/16 00:15:02;;;;;;;5.07;2.55;;;;;;;;;;5070876;28;20025;-82
2024/02/16 00:17:28;;;;;;;7.60;2.47;;;;;;;;;;5070805;28;20021;-82
2024/02/16 00:19:55;;;;;;;9.35;3.58;;;;;;;;;;5071890;28;20445;-82
2024/02/16 00:22:21;;;;;;;6.38;2.58;;;;;;;;;;5070801;28;20460;-82
2024/02/16 00:24:47;;;;;;;7.63;2.90;;;;;;;;;;5070330;28;20479;-81
2024/02/16 00:27:14;;;;;;;5.20;2.05;;;;;;;;;;5070794;28;20074;-81
2024/02/16 00:29:40;;;;;;;8.43;2.42;;;;;;;;;;5070321;28;20024;-81
2024/02/16 00:32:06;;;;;;;4.80;2.03;;;;;;;;;;5070732;28;20056;-82
2024/02/16 00:34:36;;;;;;;5.55;2.30;;;;;;;;;;5070593;28;20029;-81
2024/02/16 00:37:05;;;;;;;;;;;;;;;;;;5072141;28;20037;-80
2024/02/16 00:39:31;;;;;;;11.88;2.85;;;;;;;;;;5071950;28;19995;-81
2024/02/16 00:41:57;;;;;;;6.88;2.83;;;;;;;;;;5070289;28;20392;-81
2024/02/16 00:44:23;;;;;;;6.15;2.83;;;;;;;;;;5070449;28;20036;-81
2024/02/16 00:46:49;;;;;;;8.38;2.83;;;;;;;;;;5073479;28;20464;-82
2024/02/16 00:49:15;;;;;;;7.30;2.28;;;;;;;;;;5074036;28;20052;-81
2024/02/16 00:51:41;;;;;;;6.15;2.15;;;;;;;;;;5073745;28;20086;-82
2024/02/16 00:54:07;;;;;;;5.35;2.28;;;;;;;;;;5075422;28;20032;-83
2024/02/16 00:56:33;;;;;;;5.53;2.58;;;;;;;;;;5075565;28;20028;-82
2024/02/16 00:58:59;;;;;;;6.32;2.15;;;;;;;;;;5074149;28;20377;-82
2024/02/16 01:01:26;;;;;;;4.38;2.17;;;;;;;;;;5074316;28;20032;-83
2024/02/16 01:03:53;;;;;;;5.72;2.10;;;;;;;;;;5073549;28;20063;-82
2024/02/16 01:06:19;;;;;;;4.32;2.42;;;;;;;;;;5075492;28;20020;-83
2024/02/16 01:08:46;;;;;;;7.53;2.45;;;;;;;;;;5073790;28;20383;-82
2024/02/16 01:11:12;;;;;;;6.47;2.17;;;;;;;;;;5073621;28;20020;-81
2024/02/16 01:13:39;;;;;;;6.25;2.65;;;;;;;;;;5073869;28;20024;-80
2024/02/16 01:16:06;;;;;;;6.38;2.75;;;;;;;;;;5074062;28;20017;-83
2024/02/16 01:18:32;;;;;;;7.78;2.20;;;;;;;;;;5074044;28;20028;-83
2024/02/16 01:20:58;;;;;;;5.72;2.50;;;;;;;;;;5073898;28;20478;-81
2024/02/16 01:23:25;;;;;;;7.40;2.50;;;;;;;;;;5074013;28;20036;-80
2024/02/16 01:25:51;;;;;;;8.82;3.13;;;;;;;;;;5073998;28;20044;-80
2024/02/16 01:28:17;;;;;;;4.75;2.05;;;;;;;;;;5074844;28;20021;-81
2024/02/16 01:30:43;;;;;;;3.90;2.28;;;;;;;;;;5073878;28;20040;-82
2024/02/16 01:33:09;;;;;;;6.75;2.45;;;;;;;;;;5073392;28;20074;-83
2024/02/16 01:35:35;;;;;;;7.32;2.38;;;;;;;;;;5073540;28;20020;-81
2024/02/16 01:38:01;;;;;;;4.80;2.10;;;;;;;;;;5073305;28;20134;-80
2024/02/16 01:40:28;;;;;;;6.28;2.13;;;;;;;;;;5074756;28;20020;-81
2024/02/16 01:42:54;;;;;;;6.20;2.38;;;;;;;;;;5073118;28;20492;-79
2024/02/16 01:45:21;;;;;;;8.60;2.63;;;;;;;;;;5073400;28;20028;-81
2024/02/16 01:47:48;;;;;;;8.77;3.03;;;;;;;;;;5073241;28;20024;-86
2024/02/16 01:50:15;;;;;;;6.18;2.10;;;;;;;;;;5073346;28;20209;-84
2024/02/16 01:52:42;;;;;;;5.40;2.60;;;;;;;;;;5073338;28;20111;-84
2024/02/16 01:55:10;;;;;;;6.53;2.58;;;;;;;;;;5073124;28;20028;-84
2024/02/16 01:57:46;;;;;;;6.03;2.30;;;;;;;;;;5072642;28;20120;-83
2024/02/16 02:00:14;;;;;;;5.20;2.10;;;;;;;;;;5072859;28;20032;-80
2024/02/16 02:02:41;;;;;;;4.85;2.10;;;;;;;;;;5073761;28;20502;-80
2024/02/16 02:05:07;;;;;;;6.22;2.50;;;;;;;;;;5072471;28;20039;-80
2024/02/16 02:07:33;;;;;;;7.47;2.50;;;;;;;;;;5072682;28;20025;-79
2024/02/16 02:10:00;;;;;;;7.75;2.58;;;;;;;;;;5072651;28;20119;-80
2024/02/16 02:12:26;;;;;;;6.78;2.08;;;;;;;;;;5072513;28;20024;-80
2024/02/16 02:14:52;;;;;;;4.47;1.92;;;;;;;;;;5072320;28;20028;-80
2024/02/16 02:17:18;;;;;;;9.48;2.67;;;;;;;;;;5072518;28;20120;-80
2024/02/16 02:19:46;;;;;;;7.35;2.60;;;;;;;;;;5072382;28;20028;-81
2024/02/16 02:22:21;;;;;;;8.93;2.92;;;;;;;;;;5072636;28;20384;-79
2024/02/16 02:24:48;;;;;;;8.05;2.20;;;;;;;;;;5072072;28;20064;-79
2024/02/16 02:27:14;;;;;;;4.55;2.15;;;;;;;;;;5072283;28;20035;-79
2024/02/16 02:29:40;;;;;;;9.15;2.90;;;;;;;;;;5072132;28;20060;-79
2024/02/16 02:32:07;;;;;;;9.98;2.95;;;;;;;;;;5071904;28;20112;-78
2024/02/16 02:34:33;;;;;;;6.38;2.28;;;;;;;;;;5072063;28;20024;-79
2024/02/16 02:36:59;;;;;;;4.88;1.95;;;;;;;;;;5073788;28;20107;-79
2024/02/16 02:39:25;;;;;;;11.15;2.80;;;;;;;;;;5072379;28;20017;-78
2024/02/16 02:41:51;;;;;;;4.63;2.30;;;;;;;;;;5072008;28;20123;-78
2024/02/16 02:44:19;;;;;;;6.65;2.22;;;;;;;;;;5073522;28;20040;-78
2024/02/16 02:46:45;;;;;;;6.05;2.65;;;;;;;;;;5073737;28;20024;-78
2024/02/16 02:49:11;;;;;;;7.60;2.70;;;;;;;;;;5073281;28;20027;-78
2024/02/16 02:51:37;;;;;;;5.45;2.30;;;;;;;;;;5072016;28;20021;-80
2024/02/16 02:54:04;;;;;;;7.80;3.08;;;;;;;;;;5071750;28;20035;-81
2024/02/16 02:56:30;;;;;;;6.43;3.33;;;;;;;;;;5072993;28;20368;-81
2024/02/16 02:58:56;;;;;;;5.95;2.60;;;;;;;;;;5071608;28;20028;-81
2024/02/16 03:01:22;;;;;;;9.00;2.65;;;;;;;;;;5072866;28;20048;-81
2024/02/16 03:03:48;;;;;;;8.63;3.20;;;;;;;;;;5072377;28;20493;-81
2024/02/16 03:06:18;;;;;;;5.88;2.35;;;;;;;;;;5071891;28;20270;-79
2024/02/16 03:08:44;;;;;;;8.35;2.60;;;;;;;;;;5072359;28;20013;-80
2024/02/16 03:11:10;;;;;;;4.50;1.83;;;;;;;;;;5071574;28;20139;-81
2024/02/16 03:13:37;;;;;;;7.15;2.72;;;;;;;;;;5071654;28;20025;-81
2024/02/16 03:16:03;;;;;;;7.43;2.63;;;;;;;;;;5071361;28;20024;-81
2024/02/16 03:18:34;;;;;;;6.20;2.40;;;;;;;;;;5071501;28;20117;-81
2024/02/16 03:21:00;;;;;;;6.55;3.03;;;;;;;;;;5072563;28;20154;-80
2024/02/16 03:23:26;;;;;;;5.55;3.08;;;;;;;;;;5072440;28;20091;-81
2024/02/16 03:25:52;;;;;;;5.10;2.53;;;;;;;;;;5071254;28;20032;-81
2024/02/16 03:28:18;;;;;;;11.60;3.58;;;;;;;;;;5072666;28;20071;-81
2024/02/16 03:30:45;;;;;;;5.55;3.00;;;;;;;;;;5071332;28;20440;-81
2024/02/16 03:33:11;;;;;;;7.70;2.90;;;;;;;;;;5071141;28;20115;-81
2024/02/16 03:35:37;;;;;;;5.28;2.70;;;;;;;;;;5071296;28;20025;-80
2024/02/16 03:38:05;;;;;;;5.88;3.25;;;;;;;;;;5071041;28;20153;-80
2024/02/16 03:40:31;;;;;;;6.40;2.55;;;;;;;;;;5071218;28;20032;-80
2024/02/16 03:42:57;;;;;;;7.85;2.95;;;;;;;;;;5072075;28;20034;-81
2024/02/16 03:45:23;;;;;;;8.75;3.00;;;;;;;;;;5071016;28;20111;-80
2024/02/16 03:47:52;;;;;;;9.45;4.15;;;;;;;;;;5070852;28;20056;-81
2024/02/16 03:50:18;;;;;;;4.65;2.08;;;;;;;;;;5070825;28;20027;-80
2024/02/16 03:52:44;;;;;;;9.50;3.25;;;;;;;;;;5072071;28;20346;-81
2024/02/16 03:55:10;;;;;;;8.18;2.90;;;;;;;;;;5072243;28;20035;-81
2024/02/16 03:57:36;;;;;;;7.13;2.63;;;;;;;;;;5070992;28;20020;-83
2024/02/16 04:00:05;;;;;;;6.47;2.88;;;;;;;;;;5072069;28;20028;-83
2024/02/16 04:02:31;;;;;;;9.88;2.83;;;;;;;;;;5072248;28;20405;-82
2024/02/16 04:04:57;;;;;;;9.23;2.92;;;;;;;;;;5070205;28;20101;-82
2024/02/16 04:07:23;;;;;;;6.50;2.60;;;;;;;;;;5070984;28;20024;-82
2024/02/16 04:09:49;;;;;;;9.05;3.28;;;;;;;;;;5070905;28;20021;-82
2024/02/16 04:12:15;;;;;;;6.18;2.47;;;;;;;;;;5070744;28;20074;-84
2024/02/16 04:14:43;;;;;;;7.40;2.75;;;;;;;;;;5072394;28;20024;-83
2024/02/16 04:17:09;;;;;;;6.35;2.20;;;;;;;;;;5070868;28;20078;-84
2024/02/16 04:19:37;;;;;;;8.77;3.25;;;;;;;;;;5072640;28;20017;-83
2024/02/16 04:22:03;;;;;;;6.90;2.80;;;;;;;;;;5074820;28;20028;-84
2024/02/16 04:24:29;;;;;;;7.80;3.83;;;;;;;;;;5074869;28;20410;-84
2024/02/16 04:26:55;;;;;;;11.98;3.50;;;;;;;;;;5074759;28;20527;-83
2024/02/16 04:29:21;;;;;;;4.70;2.20;;;;;;;;;;5076018;28;20106;-86
2024/02/16 04:31:47;;;;;;;5.70;2.30;;;;;;;;;;5074929;28;20052;-86
2024/02/16 04:34:14;;;;;;;5.25;2.50;;;;;;;;;;5074678;28;20054;-83
2024/02/16 04:36:41;;;;;;;7.47;2.22;;;;;;;;;;5074855;28;20025;-80
2024/02/16 04:39:09;;;;;;;6.78;2.08;;;;;;;;;;5074341;28;20020;-81
2024/02/16 04:41:35;;;;;;;5.40;2.42;;;;;;;;;;5074507;28;20021;-81
2024/02/16 04:44:01;;;;;;;5.90;2.60;;;;;;;;;;5074234;28;20028;-82
2024/02/16 04:46:27;;;;;;;6.57;2.00;;;;;;;;;;5076715;28;20029;-81
2024/02/16 04:48:54;;;;;;;5.90;1.98;;;;;;;;;;5077413;28;20074;-82
2024/02/16 04:51:20;;;;;;;6.70;2.30;;;;;;;;;;5075354;28;20020;-83
2024/02/16 04:53:46;;;;;;;4.90;2.15;;;;;;;;;;5075305;28;20033;-82
2024/02/16 04:56:12;;;;;;;6.80;2.25;;;;;;;;;;5075722;28;20035;-81
2024/02/16 04:58:44;;;;;;;6.45;2.90;;;;;;;;;;5075206;28;20048;-82
2024/02/16 05:01:10;;;;;;;5.50;2.95;;;;;;;;;;5075235;28;20037;-81
2024/02/16 05:03:37;;;;;;;6.22;3.08;;;;;;;;;;5074418;28;20071;-82
2024/02/16 05:06:03;;;;;;;6.80;3.75;;;;;;;;;;5074497;28;20024;-82
2024/02/16 05:08:29;;;;;;;6.22;3.55;;;;;;;;;;5074670;28;20029;-82
2024/02/16 05:10:55;;;;;;;8.35;4.05;;;;;;;;;;5074402;28;20456;-80
2024/02/16 05:13:21;;;;;;;6.35;3.45;;;;;;;;;;5074148;28;20461;-81
2024/02/16 05:15:50;;;;;;;8.63;3.13;;;;;;;;;;5074203;28;20555;-81
2024/02/16 05:18:17;;;;;;;8.50;3.40;;;;;;;;;;5074606;28;20566;-82
2024/02/16 05:20:43;;;;;;;7.85;3.83;;;;;;;;;;5076091;28;20098;-82
2024/02/16 05:23:10;;;;;;;8.98;4.07;;;;;;;;;;5074443;28;20029;-81
2024/02/16 05:25:36;;;;;;;7.45;3.17;;;;;;;;;;5074285;28;20032;-83
2024/02/16 05:28:02;;;;;;;6.45;3.13;;;;;;;;;;5073849;28;20027;-83
2024/02/16 05:30:28;;;;;;;6.15;3.08;;;;;;;;;;5074153;28;20044;-82
2024/02/16 05:32:58;;;;;;;6.03;2.70;;;;;;;;;;5073636;28;20070;-82
2024/02/16 05:35:27;;;;;;;6.50;2.80;;;;;;;;;;5074054;28;20112;-82
2024/02/16 05:37:55;;;;;;;6.03;3.03;;;;;;;;;;5073912;28;20487;-80
2024/02/16 05:40:26;;;;;;;4.68;2.42;;;;;;;;;;5073311;28;20540;-81
2024/02/16 05:42:53;;;;;;;8.00;3.20;;;;;;;;;;5073532;28;20051;-80
2024/02/16 05:45:19;;;;;;;7.30;3.33;;;;;;;;;;5073288;28;20021;-80
2024/02/16 05:47:46;;;;;;;7.03;2.08;;;;;;;;;;5073618;28;20023;-80
2024/02/16 05:50:13;;;;;;;7.07;3.50;;;;;;;;;;5073229;28;20031;-79
2024/02/16 05:52:39;;;;;;;6.43;2.45;;;;;;;;;;5073234;28;20020;-79
2024/02/16 05:55:06;;;;;;;7.22;3.08;;;;;;;;;;5072908;28;20020;-80
2024/02/16 05:57:32;;;;;;;7.20;3.10;;;;;;;;;;5073200;28;20043;-81
2024/02/16 05:59:58;;;;;;;6.40;2.53;;;;;;;;;;5072991;28;20025;-82
2024/02/16 06:02:25;;;;;;;5.10;2.70;;;;;;;;;;5073045;28;20047;-81
2024/02/16 06:04:51;;;;;;;7.57;2.90;;;;;;;;;;5073209;28;20056;-82
2024/02/16 06:07:18;;;;;;;6.05;2.97;;;;;;;;;;5073158;28;20032;-83
2024/02/16 06:09:44;;;;;;;5.15;2.58;;;;;;;;;;5073147;28;20032;-83
2024/02/16 06:12:11;;;;;;;9.15;3.72;;;;;;;;;;5073234;28;20119;-82
2024/02/16 06:14:37;;;;;;;6.53;2.80;;;;;;;;;;5073662;28;20028;-83
2024/02/16 06:17:03;;;;;;;7.78;2.40;;;;;;;;;;5073495;28;20123;-83
2024/02/16 06:19:29;;;;;;;9.57;3.30;;;;;;;;;;5074278;28;20021;-83
2024/02/16 06:21:56;;;;;;;7.55;3.42;;;;;;;;;;5073155;28;20025;-82
2024/02/16 06:24:25;;;;;;;7.90;3.78;;;;;;;;;;5073104;28;20050;-83
2024/02/16 06:26:54;;;;;;;6.82;3.03;;;;;;;;;;5074598;28;20029;-83
2024/02/16 06:29:20;;;;;;;8.47;3.27;;;;;;;;;;5073032;28;20035;-81
2024/02/16 06:31:50;;;;;;;7.72;3.38;;;;;;;;;;5073070;28;20025;-81
2024/02/16 06:34:16;;;;;;;4.70;2.30;;;;;;;;;;5072897;28;20024;-82
2024/02/16 06:36:42;;;;;;;9.23;3.70;;;;;;;;;;5072975;28;20052;-81
2024/02/16 06:39:11;;;;;;;4.75;1.92;;;;;;;;;;5073202;28;20032;-82
2024/02/16 06:41:37;;;;;;;7.75;3.03;;;;;;;;;;5073339;28;20020;-83
2024/02/16 06:44:04;;;;;;;7.18;3.90;;;;;;;;;;5071663;28;20031;-80
2024/02/16 06:46:30;;;;;;;8.13;3.08;;;;;;;;;;5074543;28;20020;-82
2024/02/16 06:48:56;;;;;;;6.50;2.90;;;;;;;;;;5072936;28;20021;-80
2024/02/16 06:51:23;;;;;;;7.70;3.35;;;;;;;;;;5072901;28;20486;-81
2024/02/16 06:53:50;;;;;;;10.52;2.65;;;;;;;;;;5072528;28;20029;-83
2024/02/16 06:56:16;;;;;;;8.32;2.15;;;;;;;;;;5072181;28;20489;-84
2024/02/16 06:58:42;;;;;;;6.18;3.35;;;;;;;;;;5071737;28;20074;-83
2024/02/16 07:01:08;;;;;;;7.57;3.20;;;;;;;;;;5071658;28;20032;-83
2024/02/16 07:03:38;;;;;;;7.70;3.47;;;;;;;;;;5071440;28;20143;-81
2024/02/16 07:06:07;;;;;;;6.13;2.93;;;;;;;;;;5071486;28;20028;-80
2024/02/16 07:08:33;;;;;;;6.57;3.55;;;;;;;;;;5071714;28;20056;-80
2024/02/16 07:10:59;;;;;;;8.68;3.78;;;;;;;;;;5072050;28;20020;-81
2024/02/16 07:13:25;;;;;;;6.32;2.60;;;;;;;;;;5071458;28;20077;-81
2024/02/16 07:15:51;;;;;;;4.75;2.30;;;;;;;;;;5071539;28;20032;-81
2024/02/16 07:18:17;;;;;;;9.05;3.42;;;;;;;;;;5071252;28;20027;-81
2024/02/16 07:20:43;;;;;;;9.45;3.47;;;;;;;;;;5071431;28;20534;-82
2024/02/16 07:23:10;;;;;;;5.57;2.53;;;;;;;;;;5071197;28;20043;-81
2024/02/16 07:25:36;;;;;;;8.18;4.20;;;;;;;;;;5071533;28;20119;-81
2024/02/16 07:28:02;;;;;;;6.78;3.20;;;;;;;;;;5071358;28;20032;-81
2024/02/16 07:30:28;;;;;;;6.10;2.80;;;;;;;;;;5071143;28;20025;-81
2024/02/16 07:32:54;;;;;;;7.07;3.13;;;;;;;;;;5071354;28;20021;-80
2024/02/16 07:35:24;;;;;;;7.35;3.47;;;;;;;;;;5071124;28;20047;-80
2024/02/16 07:37:52;;;;;;;9.35;4.70;;;;;;;;;;5071297;28;20020;-80
2024/02/16 07:40:18;;;;;;;8.23;3.40;;;;;;;;;;5070966;28;20236;-80
2024/02/16 07:42:45;;;;;;;8.60;3.95;;;;;;;;;;5072511;28;20017;-81
2024/02/16 07:45:11;;;;;;;9.63;4.00;;;;;;;;;;5070871;28;20039;-82
2024/02/16 07:47:38;;;;;;;7.65;3.90;;;;;;;;;;5071024;28;20020;-81
2024/02/16 07:50:06;;;;;;;5.43;2.75;;;;;;;;;;5070649;28;20030;-81
2024/02/16 07:52:32;;;;;;;10.15;4.53;;;;;;;;;;5070634;28;20442;-80
2024/02/16 07:54:58;;;;;;;9.25;4.18;;;;;;;;;;5070781;28;20086;-81
2024/02/16 07:57:24;;;;;;;9.35;4.90;;;;;;;;;;5070498;28;20017;-81
2024/02/16 07:59:51;;;;;;;8.52;4.32;;;;;;;;;;5070788;28;20036;-81
2024/02/16 08:02:17;;;;;;;8.82;4.40;;;;;;;;;;5070935;28;20025;-80
2024/02/16 08:04:48;;;;;;;10.75;4.72;;;;;;;;;;5070869;28;20198;-80
2024/02/16 08:07:14;;;;;;;8.20;3.70;;;;;;;;;;5070672;28;20028;-81
2024/02/16 08:09:40;;;;;;;6.70;3.38;;;;;;;;;;5070637;28;20266;-81
2024/02/16 08:12:06;;;;;;;5.85;3.55;;;;;;;;;;5070697;28;20029;-82
2024/02/16 08:14:35;;;;;;;9.68;4.40;;;;;;;;;;5070716;28;20049;-82
2024/02/16 08:17:02;;;;;;;8.48;3.97;;;;;;;;;;5070963;28;20082;-81
2024/02/16 08:19:33;;;;;;;9.65;3.95;;;;;;;;;;5071762;28;20039;-81
2024/02/16 08:21:59;;;;;;;8.05;4.03;;;;;;;;;;5070621;28;20025;-83
2024/02/16 08:24:25;;;;;;;6.95;4.13;;;;;;;;;;5070188;28;20032;-82
2024/02/16 08:26:51;;;;;;;8.30;3.90;;;;;;;;;;5070906;28;20036;-81
2024/02/16 08:29:17;;;;;;;8.30;3.10;;;;;;;;;;5072683;28;20020;-81
2024/02/16 08:31:44;;;;;;;7.72;3.45;;;;;;;;;;5073766;28;20017;-81
2024/02/16 08:34:10;;;;;;;7.97;3.28;;;;;;;;;;5072115;28;20044;-82
2024/02/16 08:36:39;;;;;;;8.50;3.95;;;;;;;;;;5073133;28;20028;-81
2024/02/16 08:39:05;;;;;;;5.35;3.20;;;;;;;;;;5071865;28;20479;-81
2024/02/16 08:41:32;;;;;;;7.75;3.45;;;;;;;;;;5071553;28;20081;-82
2024/02/16 08:43:58;;;;;;;10.13;4.45;;;;;;;;;;5071575;28;20024;-81
2024/02/16 08:46:24;;;;;;;13.98;4.85;;;;;;;;;;5071523;28;20361;-82
2024/02/16 08:48:50;;;;;;;8.55;4.00;;;;;;;;;;5072614;28;20032;-82
2024/02/16 08:51:16;;;;;;;7.75;3.65;;;;;;;;;;5071068;28;20028;-83
2024/02/16 08:53:42;;;;;;;9.32;4.80;;;;;;;;;;5070729;28;20621;-82
2024/02/16 08:56:11;;;;;;;13.88;4.80;;;;;;;;;;5070153;28;20052;-82
2024/02/16 08:58:38;;;;;;;10.88;3.92;;;;;;;;;;5070138;28;20129;-81
2024/02/16 09:01:04;;;;;;;8.30;4.07;;;;;;;;;;5070136;28;20020;-82
2024/02/16 09:03:36;;;;;;;7.95;4.30;;;;;;;;;;5069694;28;20557;-82
2024/02/16 09:06:02;;;;;;;14.45;4.93;;;;;;;;;;5070863;28;20127;-81
2024/02/16 09:08:32;;;;;;;10.02;5.18;;;;;;;;;;5074827;28;20503;-82
2024/02/16 09:10:58;;;;;;;;;;;;;;;;;;5075880;28;20086;-82
2024/02/16 09:13:24;;;;;;;8.25;4.45;;;;;;;;;;5073576;28;20340;-81
2024/02/16 09:15:51;;;;;;;11.90;4.50;;;;;;;;;;5073743;28;20456;-81
2024/02/16 09:18:17;;;;;;;7.35;3.75;;;;;;;;;;5073563;28;20020;-81
2024/02/16 09:20:44;;;;;;;9.48;4.45;;;;;;;;;;5073915;28;20032;-82
2024/02/16 09:23:10;;;;;;;11.95;4.88;;;;;;;;;;5073673;28;20043;-82
2024/02/16 09:25:36;;;;;;;11.48;4.30;;;;;;;;;;5073660;28;20020;-81
2024/02/16 09:28:02;;;;;;;10.73;5.05;;;;;;;;;;5073552;28;20116;-82
2024/02/16 09:30:28;;;;;;;10.20;3.95;;;;;;;;;;5073334;28;20035;-81
2024/02/16 09:32:54;;;;;;;12.27;5.30;;;;;;;;;;5073609;28;20020;-82
2024/02/16 09:35:20;;;;;;;11.55;5.15;;;;;;;;;;5073656;28;20054;-82
2024/02/16 09:37:46;;;;;;;8.20;4.38;;;;;;;;;;5073478;28;20403;-83
2024/02/16 09:40:13;;;;;;;13.88;5.03;;;;;;;;;;5074363;28;20031;-82
2024/02/16 09:42:39;;;;;;;9.43;4.47;;;;;;;;;;5074630;28;20048;-81
2024/02/16 09:45:07;;;;;;;10.27;5.00;;;;;;;;;;5074606;28;20066;-81
2024/02/16 09:47:34;;;;;;;10.80;4.47;;;;;;;;;;5075203;28;20361;-80
2024/02/16 09:50:02;;;;;;;18.38;7.30;;;;;;;;;;5076604;28;20052;-81
2024/02/16 09:52:28;;;;;;;10.88;4.93;;;;;;;;;;5077096;28;20078;-80
2024/02/16 09:54:55;;;;;;;8.75;4.00;;;;;;;;;;5077994;28;20028;-80
2024/02/16 09:57:21;;;;;;;11.80;5.38;;;;;;;;;;5077587;28;20021;-81
2024/02/16 09:59:47;;;;;;;9.68;5.63;;;;;;;;;;5077570;28;20021;-81
2024/02/16 10:02:13;;;;;;;9.65;4.97;;;;;;;;;;5077864;28;20426;-80
2024/02/16 10:04:39;;;;;;;11.00;4.10;;;;;;;;;;5077706;28;20045;-81
2024/02/16 10:07:06;;;;;;;7.32;3.50;;;;;;;;;;5077820;28;20404;-80
2024/02/16 10:09:32;;;;;;;10.40;4.97;;;;;;;;;;5077575;28;20128;-82
2024/02/16 10:11:58;;;;;;;9.05;4.13;;;;;;;;;;5076834;28;20112;-82
2024/02/16 10:14:25;;;;;;;11.30;5.78;;;;;;;;;;5073947;28;20029;-81
2024/02/16 10:17:06;;;;;;;9.07;4.63;;;;;;;;;;5074426;28;20035;-81
2024/02/16 10:19:41;;;;;;;9.80;4.97;;;;;;;;;;5073874;28;20090;-81
2024/02/16 10:22:11;;;;;;;9.88;5.13;;;;;;;;;;5076481;28;20032;-80
2024/02/16 10:24:38;;;;;;;10.68;5.15;;;;;;;;;;5078234;28;20025;-81
2024/02/16 10:27:06;;;;;;;10.93;5.18;;;;;;;;;;5077175;28;20025;-81
2024/02/16 10:29:34;;;;;;;9.25;4.75;;;;;;;;;;5076353;28;20031;-82
2024/02/16 10:32:00;;;;;;;8.50;5.28;;;;;;;;;;5076657;28;20028;-82
2024/02/16 10:34:26;;;;;;;13.10;4.57;;;;;;;;;;5076317;28;20052;-81
2024/02/16 10:36:52;;;;;;;13.40;5.88;;;;;;;;;;5076298;28;20468;-81
2024/02/16 10:39:18;;;;;;;10.60;5.55;;;;;;;;;;5076644;28;20468;-81
2024/02/16 10:41:45;;;;;;;13.93;6.38;;;;;;;;;;5076926;28;20484;-81
2024/02/16 10:44:12;;;;;;;16.55;6.05;;;;;;;;;;5078253;28;20032;-81
2024/02/16 10:46:38;;;;;;;14.10;6.00;;;;;;;;;;5077600;28;20062;-81
2024/02/16 10:49:08;;;;;;;14.18;6.25;;;;;;;;;;5077469;28;20024;-81
2024/02/16 10:51:34;;;;;;;10.77;4.53;;;;;;;;;;5076756;28;20028;-82
2024/02/16 10:54:01;;;;;;;13.77;6.28;;;;;;;;;;5076944;28;20031;-82
2024/02/16 10:56:37;;;;;;;12.63;6.00;;;;;;;;;;5076821;28;20036;-82
2024/02/16 10:59:04;;;;;;;12.32;6.05;;;;;;;;;;5076967;28;20404;-81
2024/02/16 11:01:37;;;;;;;12.48;6.05;;;;;;;;;;5077074;28;20086;-82
2024/02/16 11:04:04;;;;;;;15.40;7.38;;;;;;;;;;5074790;28;20164;-82
2024/02/16 11:06:32;;;;;;;14.38;7.85;;;;;;;;;;5072399;28;20024;-80
2024/02/16 11:09:07;;;;;;;10.05;4.97;;;;;;;;;;5072311;28;20029;-81
2024/02/16 11:11:35;;;;;;;11.10;6.45;;;;;;;;;;5073230;28;20082;-81
2024/02/16 11:14:03;;;;;;;13.05;7.88;;;;;;;;;;5073274;28;20025;-82
2024/02/16 11:16:29;;;;;;;18.50;9.05;;;;;;;;;;5073130;28;20078;-81
2024/02/16 11:18:57;;;;;;;15.85;8.13;;;;;;;;;;5073330;28;20032;-82
2024/02/16 11:21:23;;;;;;;18.98;8.48;;;;;;;;;;5072976;28;20025;-82
2024/02/16 11:23:49;;;;;;;14.52;7.82;;;;;;;;;;5073302;28;20115;-82
2024/02/16 11:26:17;;;;;;;16.25;9.20;;;;;;;;;;5073594;28;20162;-82
2024/02/16 11:28:44;;;;;;;14.48;8.85;;;;;;;;;;5073070;28;20025;-81
2024/02/16 11:31:10;;;;;;;19.00;12.18;;;;;;;;;;5073420;28;20074;-82
2024/02/16 11:33:36;;;;;;;23.75;12.13;;;;;;;;;;5073158;28;20035;-82
2024/02/16 11:36:03;;;;;;;16.52;10.30;;;;;;;;;;5074163;28;20071;-82
2024/02/16 11:38:33;;;;;;;14.70;9.10;;;;;;;;;;5074933;28;20023;-83
2024/02/16 11:41:00;;;;;;;20.73;13.23;;;;;;;;;;5074800;28;20369;-82
2024/02/16 11:43:26;;;;;;;20.88;12.65;;;;;;;;;;5074061;28;20040;-82
2024/02/16 11:45:52;;;;;;;22.52;12.70;;;;;;;;;;5074098;28;20452;-81
2024/02/16 11:48:22;;;;;;;20.58;15.98;;;;;;;;;;5074347;28;20029;-82
2024/02/16 11:50:49;;;;;;;17.10;10.63;;;;;;;;;;5074164;28;20031;-82
2024/02/16 11:53:19;;;;;;;24.45;17.25;;;;;;;;;;5074286;28;20025;-83
2024/02/16 11:55:48;;;;;;;20.10;13.25;;;;;;;;;;5072817;28;20017;-82
2024/02/16 11:58:17;;;;;;;21.38;15.48;;;;;;;;;;5071078;28;20035;-81
2024/02/16 12:00:43;;;;;;;20.23;12.35;;;;;;;;;;5070983;28;20090;-83
2024/02/16 12:03:09;;;;;;;20.92;13.40;;;;;;;;;;5071966;28;20020;-82
2024/02/16 12:05:35;;;;;;;17.02;11.93;;;;;;;;;;5070461;28;20060;-82
2024/02/16 12:08:01;;;;;;;14.27;10.10;;;;;;;;;;5071222;28;20024;-81
2024/02/16 12:10:27;;;;;;;17.90;11.85;;;;;;;;;;5070749;28;20475;-83
2024/02/16 12:12:53;;;;;;;16.88;10.75;;;;;;;;;;5070967;28;20476;-82
2024/02/16 12:15:20;;;;;;;20.92;14.98;;;;;;;;;;5070728;28;20036;-82
2024/02/16 12:17:46;;;;;;;13.88;9.20;;;;;;;;;;5071031;28;20074;-83
2024/02/16 12:20:13;;;;;;;20.25;14.07;;;;;;;;;;5072706;28;20403;-83
2024/02/16 12:22:39;;;;;;;23.85;13.20;;;;;;;;;;5070964;28;20051;-83
2024/02/16 12:25:06;;;;;;;14.25;9.63;;;;;;;;;;5072865;28;20055;-81
2024/02/16 12:27:33;;;;;;;15.88;10.38;;;;;;;;;;5072509;28;20024;-81
2024/02/16 12:29:59;;;;;;;16.48;11.05;;;;;;;;;;5072211;28;20047;-81
2024/02/16 12:32:25;;;;;;;16.40;10.95;;;;;;;;;;5069097;28;20120;-83
2024/02/16 12:34:51;;;;;;;13.57;10.65;;;;;;;;;;5051921;28;20028;-83
2024/02/16 12:37:17;;;;;;;16.83;10.80;;;;;;;;;;5051119;28;20107;-83
2024/02/16 12:39:45;;;;;;;14.40;10.90;;;;;;;;;;5050329;28;20032;-83
2024/02/16 12:42:12;;;;;;;14.23;11.10;;;;;;;;;;5054647;28;20021;-83
2024/02/16 12:44:38;;;;;;;16.17;11.18;;;;;;;;;;5054302;28;20469;-83
2024/02/16 12:47:05;;;;;;;22.10;14.80;;;;;;;;;;5054474;28;20507;-83
2024/02/16 12:49:31;;;;;;;14.43;11.02;;;;;;;;;;5054160;28;20025;-83
2024/02/16 12:51:58;;;;;;;18.52;15.18;;;;;;;;;;5054380;28;20035;-82
2024/02/16 12:54:24;;;;;;;18.75;13.90;;;;;;;;;;5053977;28;20071;-83
2024/02/16 12:56:51;;;;;;;17.17;11.18;;;;;;;;;;5054608;28;20362;-83
2024/02/16 12:59:17;;;;;;;14.05;12.27;;;;;;;;;;5054233;28;20112;-83
2024/02/16 13:01:43;;;;;;;15.43;12.63;;;;;;;;;;5072663;28;20037;-82
2024/02/16 13:04:09;;;;;;;17.38;12.52;;;;;;;;;;5073915;28;20095;-82
2024/02/16 13:06:36;;;;;;;13.80;11.68;;;;;;;;;;5073778;28;20027;-82
2024/02/16 13:09:02;;;;;;;16.45;13.45;;;;;;;;;;5073957;28;20028;-82
2024/02/16 13:11:29;;;;;;;18.08;15.10;;;;;;;;;;5075246;28;20024;-82
2024/02/16 13:13:55;;;;;;;17.17;13.55;;;;;;;;;;5073873;28;20039;-83
2024/02/16 13:16:21;;;;;;;17.92;14.05;;;;;;;;;;5074011;28;20089;-81
2024/02/16 13:18:47;;;;;;;26.27;18.45;;;;;;;;;;5073977;28;20023;-82
2024/02/16 13:21:14;;;;;;;17.52;14.40;;;;;;;;;;5068839;28;20061;-82
2024/02/16 13:23:40;;;;;;;16.70;13.90;;;;;;;;;;5053398;28;20029;-82
2024/02/16 13:26:06;;;;;;;19.42;15.27;;;;;;;;;;5053425;28;20036;-82
2024/02/16 13:28:33;;;;;;;15.85;10.85;;;;;;;;;;5053136;28;20218;-82
2024/02/16 13:30:59;;;;;;;19.48;14.30;;;;;;;;;;5053469;28;20044;-82
2024/02/16 13:33:25;;;;;;;21.48;13.52;;;;;;;;;;5053285;28;20029;-82
2024/02/16 13:35:51;;;;;;;16.38;12.18;;;;;;;;;;5053680;28;20427;-81
2024/02/16 13:38:17;;;;;;;16.65;12.05;;;;;;;;;;5055139;28;20472;-82
2024/02/16 13:40:43;;;;;;;12.88;10.00;;;;;;;;;;5053374;28;20475;-83
2024/02/16 13:43:09;;;;;;;16.98;13.50;;;;;;;;;;5053641;28;20457;-82
2024/02/16 13:45:50;;;;;;;16.08;11.40;;;;;;;;;;5053100;28;20036;-81
2024/02/16 13:48:16;;;;;;;13.80;9.00;;;;;;;;;;5052973;28;20021;-81
2024/02/16 13:50:44;;;;;;;12.30;9.13;;;;;;;;;;5052839;28;20028;-80
2024/02/16 13:53:10;;;;;;;12.90;10.07;;;;;;;;;;5052601;28;20017;-82
2024/02/16 13:55:36;;;;;;;11.30;8.38;;;;;;;;;;5052804;28;20175;-81
2024/02/16 13:58:02;;;;;;;12.65;9.32;;;;;;;;;;5053092;28;20029;-81
2024/02/16 14:00:28;;;;;;;12.07;8.35;;;;;;;;;;5052663;28;20461;-81
2024/02/16 14:02:54;;;;;;;7.93;4.90;;;;;;;;;;5052886;28;20029;-81
2024/02/16 14:05:22;;;;;;;8.50;5.53;;;;;;;;;;5052617;28;20504;-81
2024/02/16 14:07:48;;;;;;;9.00;6.63;;;;;;;;;;5054096;28;20021;-81
2024/02/16 14:10:14;;;;;;;10.45;8.18;;;;;;;;;;5052876;28;20025;-82
2024/02/16 14:12:41;;;;;;;9.77;6.72;;;;;;;;;;5052426;28;20113;-81
2024/02/16 14:15:07;;;;;;;8.55;6.57;;;;;;;;;;5052688;28;20377;-81
2024/02/16 14:17:33;;;;;;;9.52;7.18;;;;;;;;;;5052507;28;20025;-81
2024/02/16 14:19:59;;;;;;;10.10;6.47;;;;;;;;;;5052650;28;20021;-81
2024/02/16 14:22:25;;;;;;;8.52;6.15;;;;;;;;;;5052394;28;20021;-81
2024/02/16 14:24:51;;;;;;;8.95;6.25;;;;;;;;;;5052379;28;20365;-82
2024/02/16 14:27:17;;;;;;;7.55;3.88;;;;;;;;;;5054204;28;20017;-81
2024/02/16 14:29:43;;;;;;;10.25;6.28;;;;;;;;;;5052092;28;20033;-81
2024/02/16 14:32:09;;;;;;;6.10;4.18;;;;;;;;;;5052369;28;20111;-81
2024/02/16 14:34:35;;;;;;;7.00;4.03;;;;;;;;;;5053032;28;20040;-81